Terminal Aerodrome Forecast
Issued by NWS Spokane, WA

Home | Current Version | Previous Version | Text Only | Print | Product List | Glossary On
Versions: 1 2 3 4 5 6 7 8 9 10 11 12 13 14 15 16 17 18 19 20 21 22 23 24 25 26 27 28 29 30 31 32 33 34 35 36
000
FTUS46 KOTX 271422 AAB
TAFEAT
TAF AMD
KEAT 271422Z 2714/2812 VRB04KT 4SM -RA BR FEW002 OVC017
      TEMPO 2714/2716 P6SM -RA BKN020 OVC028
     FM271900 34009KT P6SM VCSH BKN060 BKN100
     FM280300 31015KT P6SM BKN120
     FM280700 30016G24KT P6SM SCT250=

USA.gov is the U.S. government's official web portal to all federal, state and local government web resources and services.